createdAt,value
2018-10-05T00:04:59.707Z,2.80
2018-10-05T00:10:03.004Z,2.50
2018-10-05T00:15:06.589Z,2.47
2018-10-05T00:20:09.965Z,3.08
2018-10-05T00:25:13.324Z,3.10
2018-10-05T00:30:16.637Z,2.40
2018-10-05T00:35:19.997Z,2.73
2018-10-05T00:40:23.346Z,3.13
2018-10-05T00:45:26.738Z,2.60
2018-10-05T00:50:30.038Z,2.50
2018-10-05T00:55:33.117Z,2.57
2018-10-05T01:00:36.419Z,2.27
2018-10-05T01:05:39.844Z,2.70
2018-10-05T01:10:43.281Z,3.17
2018-10-05T01:15:46.583Z,2.43
2018-10-05T01:20:50.131Z,2.63
2018-10-05T01:25:53.555Z,2.87
2018-10-05T01:30:56.600Z,2.50
2018-10-05T01:36:00.146Z,2.40
2018-10-05T01:41:03.453Z,3.00
2018-10-05T01:46:06.769Z,3.50
2018-10-05T01:51:10.149Z,2.27
2018-10-05T01:56:13.483Z,2.70
2018-10-05T02:01:16.856Z,2.33
2018-10-05T02:06:20.250Z,2.80
2018-10-05T02:11:23.557Z,2.30
2018-10-05T02:16:26.960Z,2.93
2018-10-05T02:21:30.270Z,3.63
2018-10-05T02:26:33.670Z,2.93
2018-10-05T02:31:37.028Z,2.77
2018-10-05T02:36:40.766Z,2.97
2018-10-05T02:41:44.214Z,2.67
2018-10-05T02:46:47.488Z,2.87
2018-10-05T02:51:50.821Z,3.40
2018-10-05T02:56:54.288Z,2.77
2018-10-05T03:02:08.746Z,3.43
2018-10-05T03:07:12.076Z,2.63
2018-10-05T03:12:15.431Z,2.77
2018-10-05T03:17:18.754Z,2.67
2018-10-05T03:22:22.111Z,2.83
2018-10-05T03:27:25.406Z,2.05
2018-10-05T03:32:28.737Z,2.40
2018-10-05T03:37:32.259Z,2.43
2018-10-05T03:42:35.674Z,2.80
2018-10-05T03:47:39.103Z,2.20
2018-10-05T03:52:42.508Z,2.53
2018-10-05T03:57:45.943Z,2.40
2018-10-05T04:02:49.242Z,2.93
2018-10-05T04:07:52.544Z,2.10
2018-10-05T04:12:55.853Z,2.53
2018-10-05T04:17:59.192Z,2.57
2018-10-05T04:23:02.489Z,2.03
2018-10-05T04:28:05.873Z,2.93
2018-10-05T04:33:09.356Z,3.03
2018-10-05T04:38:12.662Z,2.77
2018-10-05T04:43:16.015Z,2.70
2018-10-05T04:48:19.313Z,2.90
2018-10-05T04:53:22.619Z,3.57
2018-10-05T04:58:26.054Z,2.90
2018-10-05T05:03:29.413Z,2.50
2018-10-05T05:08:32.717Z,3.20
2018-10-05T05:13:36.131Z,3.83
2018-10-05T05:18:39.437Z,2.80
2018-10-05T05:23:42.720Z,2.87
2018-10-05T05:28:46.162Z,3.40
2018-10-05T05:33:49.628Z,2.77
2018-10-05T05:38:52.924Z,2.53
2018-10-05T05:43:56.417Z,3.10
2018-10-05T05:48:59.749Z,3.70
2018-10-05T05:54:03.107Z,2.53
2018-10-05T05:59:06.481Z,3.63
2018-10-05T06:04:09.838Z,3.17
2018-10-05T06:09:13.157Z,2.93
2018-10-05T06:14:16.510Z,2.00
2018-10-05T06:19:19.808Z,2.40
2018-10-05T06:24:23.152Z,3.60
2018-10-05T06:29:27.184Z,2.87
2018-10-05T06:34:30.577Z,3.93
2018-10-05T06:39:34.001Z,3.47
2018-10-05T06:44:37.432Z,5.70
2018-10-05T06:49:40.912Z,3.10
2018-10-05T06:54:44.333Z,2.77
2018-10-05T06:59:47.735Z,3.80
2018-10-05T07:04:51.163Z,4.70
2018-10-05T07:09:54.713Z,4.10
2018-10-05T07:14:58.070Z,4.37
2018-10-05T07:20:01.646Z,3.87
2018-10-05T07:25:05.232Z,3.67
2018-10-05T07:30:08.961Z,2.70
2018-10-05T07:35:12.262Z,2.98
2018-10-05T07:40:15.588Z,3.97
2018-10-05T07:45:19.130Z,3.37
2018-10-05T07:50:22.448Z,3.90
2018-10-05T07:55:25.805Z,3.73
2018-10-05T08:00:29.162Z,3.57
2018-10-05T08:05:32.486Z,3.97
2018-10-05T08:10:36.544Z,3.37
2018-10-05T08:15:39.897Z,3.93
2018-10-05T08:20:43.197Z,3.70
2018-10-05T08:25:46.566Z,3.57
2018-10-05T08:30:49.856Z,4.20
2018-10-05T08:35:53.149Z,4.03
2018-10-05T08:40:56.561Z,4.37
2018-10-05T08:45:59.966Z,3.53
2018-10-05T08:51:03.252Z,4.30
2018-10-05T08:56:07.168Z,3.57
2018-10-05T09:01:10.878Z,4.27
2018-10-05T09:06:14.423Z,3.67
2018-10-05T09:11:17.848Z,3.60
2018-10-05T09:16:21.285Z,4.27
2018-10-05T09:21:24.694Z,3.70
2018-10-05T09:26:28.051Z,4.77
2018-10-05T09:31:31.633Z,4.00
2018-10-05T09:36:35.097Z,3.40
2018-10-05T09:41:38.519Z,3.57
2018-10-05T09:46:41.865Z,4.03
2018-10-05T09:51:45.230Z,3.83
2018-10-05T09:56:48.653Z,3.77
2018-10-05T10:03:59.538Z,3.80
2018-10-05T10:09:03.023Z,3.03
2018-10-05T10:14:06.642Z,3.67
2018-10-05T10:19:09.950Z,3.40
2018-10-05T10:24:13.388Z,3.57
2018-10-05T10:29:16.921Z,3.93
2018-10-05T10:34:20.152Z,3.90
2018-10-05T10:39:23.882Z,2.50
2018-10-05T10:44:27.335Z,2.60
2018-10-05T10:49:30.669Z,3.50
2018-10-05T10:54:34.116Z,2.37
2018-10-05T10:59:37.454Z,2.60
2018-10-05T11:04:40.875Z,3.10
2018-10-05T11:09:44.370Z,3.23
2018-10-05T11:14:47.747Z,2.80
2018-10-05T11:19:51.227Z,2.10
2018-10-05T11:24:54.778Z,2.87
2018-10-05T11:29:58.269Z,3.20
2018-10-05T11:35:01.806Z,2.67
2018-10-05T11:40:05.282Z,2.97
2018-10-05T11:45:08.612Z,3.23
2018-10-05T11:50:12.203Z,2.40
2018-10-05T11:55:15.812Z,2.33
2018-10-05T12:00:19.547Z,2.50
2018-10-05T12:05:22.888Z,3.23
2018-10-05T12:10:26.218Z,2.30
2018-10-05T12:15:29.701Z,2.60
2018-10-05T12:20:33.157Z,2.40
2018-10-05T12:25:36.843Z,2.65
2018-10-05T12:30:40.469Z,2.43
2018-10-05T12:35:43.929Z,2.62
2018-10-05T12:40:47.397Z,2.50
2018-10-05T12:45:50.852Z,2.40
2018-10-05T12:50:54.225Z,2.30
2018-10-05T12:55:57.533Z,2.40
2018-10-05T13:01:01.106Z,2.25
2018-10-05T13:06:04.729Z,2.03
2018-10-05T13:11:08.147Z,1.97
2018-10-05T13:16:11.541Z,2.20
2018-10-05T13:21:14.860Z,2.30
2018-10-05T13:26:18.456Z,2.00
2018-10-05T13:31:21.963Z,2.10
2018-10-05T13:36:25.531Z,1.80
2018-10-05T13:41:28.995Z,1.90
2018-10-05T13:46:32.809Z,2.30
2018-10-05T13:51:37.245Z,2.23
2018-10-05T13:56:40.782Z,2.40
2018-10-05T14:01:44.411Z,2.02
2018-10-05T14:06:47.920Z,2.08
2018-10-05T14:11:51.546Z,1.85
2018-10-05T14:16:55.059Z,1.70
2018-10-05T14:21:58.423Z,2.17
2018-10-05T14:27:01.992Z,1.82
2018-10-05T14:32:05.337Z,1.70
2018-10-05T14:37:09.258Z,1.70
2018-10-05T14:42:12.655Z,1.82
2018-10-05T14:47:16.057Z,2.67
2018-10-05T14:52:23.412Z,2.50
2018-10-05T14:57:26.828Z,2.10
2018-10-05T15:02:30.247Z,1.75
2018-10-05T15:07:33.685Z,1.72
2018-10-05T15:12:37.116Z,2.00
2018-10-05T15:17:40.671Z,1.55
2018-10-05T15:22:44.097Z,1.85
2018-10-05T15:27:47.417Z,1.90
2018-10-05T15:32:51.282Z,2.98
2018-10-05T15:37:54.676Z,2.95
2018-10-05T15:42:58.073Z,2.50
2018-10-05T15:48:01.550Z,1.98
2018-10-05T15:53:05.020Z,1.90
2018-10-05T15:58:09.033Z,1.60
2018-10-05T16:03:12.529Z,1.80
2018-10-05T16:08:15.917Z,1.53
2018-10-05T16:13:19.322Z,1.90
2018-10-05T16:18:22.647Z,1.80
2018-10-05T16:23:26.197Z,2.60
2018-10-05T16:28:29.671Z,1.97
2018-10-05T16:33:33.084Z,1.90
2018-10-05T16:38:36.449Z,2.30
2018-10-05T16:43:40.081Z,2.70
2018-10-05T16:48:43.542Z,3.60
2018-10-05T16:53:47.217Z,3.67
2018-10-05T16:58:50.713Z,3.60
2018-10-05T17:03:54.125Z,4.43
2018-10-05T17:09:06.720Z,3.97
2018-10-05T17:14:10.243Z,4.43
2018-10-05T17:19:13.559Z,4.60
2018-10-05T17:24:17.040Z,3.47
2018-10-05T17:29:20.661Z,3.23
2018-10-05T17:34:24.109Z,3.27
2018-10-05T17:39:28.305Z,3.60
2018-10-05T17:44:31.627Z,2.67
2018-10-05T17:49:35.229Z,5.40
2018-10-05T17:54:38.645Z,2.77
2018-10-05T17:59:42.117Z,3.03
2018-10-05T18:04:45.577Z,3.70
2018-10-05T18:09:49.210Z,3.30
2018-10-05T18:14:52.625Z,3.67
2018-10-05T18:19:56.029Z,3.93
2018-10-05T18:24:59.493Z,3.80
2018-10-05T18:30:02.819Z,3.87
2018-10-05T18:35:06.145Z,3.47
2018-10-05T18:40:10.184Z,4.23
2018-10-05T18:45:13.507Z,4.27
2018-10-05T18:50:16.914Z,4.17
2018-10-05T18:55:20.269Z,6.60
2018-10-05T19:00:23.725Z,4.73
2018-10-05T19:05:26.860Z,4.40
2018-10-05T19:10:30.254Z,5.63
2018-10-05T19:15:33.657Z,4.27
2018-10-05T19:20:37.534Z,3.35
2018-10-05T19:25:40.893Z,2.93
2018-10-05T19:30:44.293Z,3.17
2018-10-05T19:35:47.957Z,3.03
2018-10-05T19:40:51.417Z,4.50
2018-10-05T19:45:54.821Z,3.70
2018-10-05T19:50:58.213Z,3.57
2018-10-05T19:56:01.692Z,3.73
2018-10-05T20:01:05.110Z,4.00
2018-10-05T20:06:08.563Z,4.47
2018-10-05T20:11:11.962Z,5.00
2018-10-05T20:16:15.249Z,4.43
2018-10-05T20:21:18.697Z,4.77
2018-10-05T20:26:22.097Z,5.30
2018-10-05T20:31:25.613Z,4.47
2018-10-05T20:36:29.171Z,4.87
2018-10-05T20:41:32.413Z,4.80
2018-10-05T20:46:35.864Z,5.60
2018-10-05T20:51:39.222Z,4.37
2018-10-05T20:56:42.676Z,4.43
2018-10-05T21:01:46.122Z,3.57
2018-10-05T21:06:49.545Z,3.73
2018-10-05T21:11:52.955Z,3.77
2018-10-05T21:16:56.404Z,3.87
2018-10-05T21:21:59.826Z,3.87
2018-10-05T21:27:03.487Z,3.00
2018-10-05T21:32:06.874Z,4.58
2018-10-05T21:37:10.300Z,4.43
2018-10-05T21:42:14.117Z,4.67
2018-10-05T21:47:17.906Z,4.07
2018-10-05T21:52:21.407Z,3.83
2018-10-05T21:57:24.808Z,3.40
2018-10-05T22:02:32.436Z,3.57
2018-10-05T22:07:36.087Z,4.20
2018-10-05T22:12:39.563Z,3.30
2018-10-05T22:17:43.044Z,4.20
2018-10-05T22:22:46.417Z,4.20
2018-10-05T22:27:49.764Z,3.70
2018-10-05T22:32:53.320Z,4.08
2018-10-05T22:37:57.182Z,3.43
2018-10-05T22:43:00.551Z,3.33
2018-10-05T22:48:03.889Z,3.07
2018-10-05T22:53:07.463Z,3.67
2018-10-05T22:58:10.852Z,3.13
2018-10-05T23:03:14.136Z,4.00
2018-10-05T23:08:17.580Z,3.73
2018-10-05T23:13:21.042Z,4.03
2018-10-05T23:18:24.412Z,2.93
2018-10-05T23:23:27.750Z,3.00
2018-10-05T23:28:31.054Z,3.10
2018-10-05T23:33:34.522Z,2.77
2018-10-05T23:38:38.110Z,3.00
2018-10-05T23:43:41.633Z,3.20
2018-10-05T23:48:44.925Z,3.40
2018-10-05T23:53:48.281Z,2.53
2018-10-05T23:58:51.734Z,2.70
